createdAt,value
2018-12-05T00:01:12.374Z,17.47
2018-12-05T00:03:40.869Z,18.83
2018-12-05T00:06:09.601Z,18.97
2018-12-05T00:08:38.114Z,20.10
2018-12-05T00:11:06.870Z,19.67
2018-12-05T00:13:35.410Z,18.40
2018-12-05T00:16:03.975Z,18.10
2018-12-05T00:18:32.499Z,18.57
2018-12-05T00:21:01.295Z,17.00
2018-12-05T00:23:29.816Z,17.43
2018-12-05T00:25:58.350Z,15.40
2018-12-05T00:28:26.856Z,16.13
2018-12-05T00:30:55.656Z,16.40
2018-12-05T00:33:24.192Z,17.33
2018-12-05T00:35:52.753Z,16.93
2018-12-05T00:38:21.259Z,18.77
2018-12-05T00:40:49.826Z,20.90
2018-12-05T00:43:18.339Z,23.13
2018-12-05T00:45:47.178Z,21.07
2018-12-05T00:48:15.711Z,18.13
2018-12-05T00:50:44.467Z,17.57
2018-12-05T00:53:13.102Z,16.63
2018-12-05T00:55:41.672Z,17.43
2018-12-05T00:58:10.210Z,19.17
2018-12-05T01:00:38.765Z,18.47
2018-12-05T01:03:07.297Z,17.80
2018-12-05T01:05:35.866Z,15.47
2018-12-05T01:08:04.710Z,13.77
2018-12-05T01:10:33.577Z,14.57
2018-12-05T01:13:02.126Z,12.43
2018-12-05T01:15:30.954Z,12.00
2018-12-05T01:17:59.459Z,13.13
2018-12-05T01:20:27.989Z,12.87
2018-12-05T01:22:56.509Z,12.63
2018-12-05T01:25:25.074Z,12.83
2018-12-05T01:27:53.600Z,12.07
2018-12-05T01:30:22.149Z,11.53
2018-12-05T01:32:50.655Z,12.30
2018-12-05T01:35:19.455Z,11.90
2018-12-05T01:37:47.978Z,12.87
2018-12-05T01:40:16.529Z,12.37
2018-12-05T01:42:45.058Z,11.80
2018-12-05T01:45:13.627Z,12.33
2018-12-05T01:47:42.202Z,11.67
2018-12-05T01:50:10.867Z,11.70
2018-12-05T01:52:39.390Z,10.33
2018-12-05T01:55:07.941Z,10.20
2018-12-05T01:57:36.502Z,11.57
2018-12-05T02:00:05.991Z,10.93
2018-12-05T02:02:34.598Z,9.80
2018-12-05T02:05:03.119Z,10.90
2018-12-05T02:07:31.687Z,10.70
2018-12-05T02:10:00.236Z,9.57
2018-12-05T02:12:28.821Z,9.57
2018-12-05T02:14:57.420Z,9.07
2018-12-05T02:17:25.964Z,11.03
2018-12-05T02:19:54.519Z,10.00
2018-12-05T02:22:23.071Z,10.03
2018-12-05T02:24:51.935Z,10.17
2018-12-05T02:27:20.480Z,10.93
2018-12-05T02:29:54.606Z,10.37
2018-12-05T02:32:23.179Z,10.07
2018-12-05T02:34:51.817Z,10.17
2018-12-05T02:37:20.325Z,10.03
2018-12-05T02:39:48.962Z,10.57
2018-12-05T02:42:17.490Z,10.53
2018-12-05T02:44:46.252Z,11.37
2018-12-05T02:47:14.771Z,12.20
2018-12-05T02:49:43.449Z,11.47
2018-12-05T02:52:11.968Z,12.50
2018-12-05T02:54:40.746Z,11.00
2018-12-05T02:57:09.254Z,11.30
2018-12-05T02:59:37.871Z,11.27
2018-12-05T03:02:06.371Z,10.83
2018-12-05T03:04:35.238Z,11.93
2018-12-05T03:07:03.735Z,10.83
2018-12-05T03:09:32.744Z,10.20
2018-12-05T03:12:01.271Z,11.17
2018-12-05T03:14:29.871Z,10.90
2018-12-05T03:16:58.378Z,10.70
2018-12-05T03:19:27.180Z,12.30
2018-12-05T03:21:55.686Z,12.37
2018-12-05T03:24:24.229Z,13.37
2018-12-05T03:26:52.764Z,13.23
2018-12-05T03:29:21.531Z,16.27
2018-12-05T03:31:50.045Z,16.27
2018-12-05T03:34:18.600Z,15.50
2018-12-05T03:36:47.105Z,15.63
2018-12-05T03:39:15.625Z,18.10
2018-12-05T03:41:44.159Z,16.60
2018-12-05T03:44:12.672Z,17.20
2018-12-05T03:46:41.190Z,14.30
2018-12-05T03:49:09.943Z,15.70
2018-12-05T03:51:38.479Z,16.30
2018-12-05T03:54:07.294Z,16.00
2018-12-05T03:56:35.937Z,14.87
2018-12-05T03:59:04.481Z,16.83
2018-12-05T04:01:32.988Z,17.30
2018-12-05T04:04:01.567Z,16.20
2018-12-05T04:06:30.086Z,15.17
2018-12-05T04:08:58.674Z,16.50
2018-12-05T04:11:27.207Z,16.60
2018-12-05T04:13:55.778Z,16.10
2018-12-05T04:16:25.212Z,15.87
2018-12-05T04:18:53.794Z,14.53
2018-12-05T04:21:22.402Z,14.53
2018-12-05T04:23:50.962Z,15.53
2018-12-05T04:26:19.579Z,15.53
2018-12-05T04:28:48.159Z,16.50
2018-12-05T04:31:19.618Z,15.27
2018-12-05T04:33:48.427Z,16.87
2018-12-05T04:36:16.958Z,18.83
2018-12-05T04:38:45.524Z,17.80
2018-12-05T04:41:14.036Z,16.87
2018-12-05T04:43:42.594Z,18.30
2018-12-05T04:46:11.136Z,17.80
2018-12-05T04:48:39.857Z,16.93
2018-12-05T04:51:08.400Z,18.30
2018-12-05T04:53:36.951Z,15.70
2018-12-05T04:56:05.530Z,15.90
2018-12-05T04:58:34.103Z,15.10
2018-12-05T05:01:02.640Z,16.03
2018-12-05T05:03:31.239Z,16.57
2018-12-05T05:05:59.831Z,14.00
2018-12-05T05:08:28.401Z,13.40
2018-12-05T05:10:56.911Z,15.87
2018-12-05T05:13:25.832Z,15.30
2018-12-05T05:15:54.374Z,16.10
2018-12-05T05:18:23.225Z,20.07
2018-12-05T05:20:51.775Z,22.00
2018-12-05T05:23:20.493Z,21.73
2018-12-05T05:25:49.061Z,23.37
2018-12-05T05:28:17.873Z,21.37
2018-12-05T05:30:46.384Z,23.10
2018-12-05T05:33:14.890Z,17.47
2018-12-05T05:35:43.411Z,18.07
2018-12-05T05:38:11.938Z,16.80
2018-12-05T05:40:40.419Z,18.60
2018-12-05T05:43:09.291Z,18.33
2018-12-05T05:45:37.816Z,17.97
2018-12-05T05:48:06.665Z,21.00
2018-12-05T05:50:35.234Z,22.63
2018-12-05T05:53:03.780Z,20.60
2018-12-05T05:55:32.290Z,21.73
2018-12-05T05:58:01.197Z,21.60
2018-12-05T06:00:29.797Z,22.73
2018-12-05T06:02:58.394Z,23.97
2018-12-05T06:05:26.889Z,24.67
2018-12-05T06:07:55.689Z,26.93
2018-12-05T06:10:24.211Z,27.27
2018-12-05T06:12:52.790Z,27.27
2018-12-05T06:15:21.415Z,28.33
2018-12-05T06:17:50.107Z,26.20
2018-12-05T06:20:18.650Z,25.93
2018-12-05T06:22:47.204Z,23.93
2018-12-05T06:25:15.746Z,22.80
2018-12-05T06:27:44.589Z,24.23
2018-12-05T06:30:13.115Z,22.70
2018-12-05T06:32:41.738Z,24.70
2018-12-05T06:35:10.300Z,26.67
2018-12-05T06:37:38.871Z,27.43
2018-12-05T06:40:07.603Z,25.50
2018-12-05T06:42:36.543Z,26.03
2018-12-05T06:45:05.058Z,27.53
2018-12-05T06:47:33.706Z,29.40
2018-12-05T06:50:02.353Z,31.83
2018-12-05T06:52:30.970Z,27.90
2018-12-05T06:54:59.481Z,27.47
2018-12-05T06:57:28.001Z,30.13
2018-12-05T06:59:56.852Z,27.03
2018-12-05T07:02:25.821Z,26.80
2018-12-05T07:04:54.353Z,25.17
2018-12-05T07:07:23.229Z,26.57
2018-12-05T07:09:52.184Z,25.20
2018-12-05T07:12:21.195Z,25.97
2018-12-05T07:14:50.119Z,23.83
2018-12-05T07:17:18.801Z,27.67
2018-12-05T07:19:47.299Z,26.37
2018-12-05T07:22:16.041Z,23.90
2018-12-05T07:24:44.559Z,26.20
2018-12-05T07:27:13.216Z,26.23
2018-12-05T07:29:41.733Z,27.90
2018-12-05T07:32:10.397Z,25.93
2018-12-05T07:34:39.040Z,25.00
2018-12-05T07:37:07.670Z,26.37
2018-12-05T07:39:36.204Z,26.97
2018-12-05T07:42:05.094Z,24.90
2018-12-05T07:44:33.629Z,25.70
2018-12-05T07:47:02.379Z,23.97
2018-12-05T07:49:31.455Z,25.13
2018-12-05T07:52:00.368Z,25.27
2018-12-05T07:54:28.857Z,24.87
2018-12-05T07:56:57.446Z,23.57
2018-12-05T07:59:26.013Z,22.47
2018-12-05T08:01:54.802Z,22.10
2018-12-05T08:04:23.374Z,19.13
2018-12-05T08:06:52.231Z,21.17
2018-12-05T08:09:20.766Z,19.83
2018-12-05T08:11:49.295Z,19.63
2018-12-05T08:14:17.980Z,17.80
2018-12-05T08:16:46.606Z,19.53
2018-12-05T08:19:15.109Z,21.07
2018-12-05T08:21:43.648Z,18.53
2018-12-05T08:24:12.403Z,16.37
2018-12-05T08:26:41.187Z,15.90
2018-12-05T08:29:09.697Z,16.47
2018-12-05T08:31:38.471Z,15.47
2018-12-05T08:34:07.076Z,15.00
2018-12-05T08:36:35.656Z,17.20
2018-12-05T08:39:05.777Z,18.10
2018-12-05T08:41:34.658Z,25.37
2018-12-05T08:44:03.239Z,24.87
2018-12-05T08:46:31.812Z,22.97
2018-12-05T08:49:00.320Z,20.70
2018-12-05T08:51:29.149Z,19.63
2018-12-05T08:53:57.720Z,21.53
2018-12-05T08:56:26.503Z,14.07
2018-12-05T08:58:55.087Z,14.17
2018-12-05T09:01:23.617Z,12.00
2018-12-05T09:03:52.187Z,13.57
2018-12-05T09:06:21.171Z,13.63
2018-12-05T09:08:49.695Z,12.87
2018-12-05T09:11:18.650Z,13.67
2018-12-05T09:13:47.245Z,21.63
2018-12-05T09:16:15.988Z,14.33
2018-12-05T09:18:44.605Z,12.43
2018-12-05T09:21:13.471Z,17.03
2018-12-05T09:23:42.133Z,15.03
2018-12-05T09:26:10.988Z,13.20
2018-12-05T09:28:39.573Z,13.77
2018-12-05T09:31:08.118Z,13.00
2018-12-05T09:33:36.723Z,13.27
2018-12-05T09:36:05.367Z,13.27
2018-12-05T09:38:34.007Z,13.73
2018-12-05T09:41:02.713Z,14.20
2018-12-05T09:43:31.237Z,17.03
2018-12-05T09:46:00.087Z,17.93
2018-12-05T09:48:28.589Z,15.50
2018-12-05T09:50:57.487Z,15.37
2018-12-05T09:53:26.046Z,14.43
2018-12-05T09:55:54.588Z,13.43
2018-12-05T09:58:23.141Z,12.43
2018-12-05T10:00:51.716Z,11.77
2018-12-05T10:03:20.259Z,13.17
2018-12-05T10:05:49.090Z,17.57
2018-12-05T10:08:17.650Z,14.90
2018-12-05T10:10:46.221Z,12.07
2018-12-05T10:13:14.749Z,11.10
2018-12-05T10:15:43.545Z,12.77
2018-12-05T10:18:12.179Z,12.13
2018-12-05T10:20:41.019Z,12.40
2018-12-05T10:23:09.586Z,13.50
2018-12-05T10:25:38.398Z,13.60
2018-12-05T10:28:06.937Z,14.63
2018-12-05T10:30:35.481Z,17.20
2018-12-05T10:33:04.107Z,15.47
2018-12-05T10:35:32.671Z,35.93
2018-12-05T10:38:01.209Z,20.20
2018-12-05T10:40:30.023Z,17.07
2018-12-05T10:42:58.533Z,15.47
2018-12-05T10:45:27.523Z,16.10
2018-12-05T10:47:56.126Z,14.73
2018-12-05T10:50:24.991Z,16.40
2018-12-05T10:52:53.526Z,12.83
2018-12-05T10:55:22.280Z,13.77
2018-12-05T10:57:50.829Z,15.43
2018-12-05T11:00:22.821Z,13.70
2018-12-05T11:02:56.868Z,14.90
2018-12-05T11:05:29.628Z,16.40
2018-12-05T11:08:03.274Z,17.13
2018-12-05T11:10:37.351Z,15.83
2018-12-05T11:13:11.001Z,15.37
2018-12-05T11:15:45.030Z,14.53
2018-12-05T11:18:18.689Z,14.47
2018-12-05T11:20:52.972Z,15.10
2018-12-05T11:23:26.717Z,14.13
2018-12-05T11:25:56.133Z,13.00
2018-12-05T11:28:24.692Z,12.37
2018-12-05T11:30:53.235Z,12.37
2018-12-05T11:33:21.762Z,13.13
2018-12-05T11:35:50.330Z,13.23
2018-12-05T11:38:18.858Z,13.40
2018-12-05T11:40:47.428Z,13.00
2018-12-05T11:43:15.949Z,11.20
2018-12-05T11:45:44.517Z,9.70
2018-12-05T11:48:13.054Z,9.70
2018-12-05T11:50:41.852Z,10.37
2018-12-05T11:53:10.363Z,10.90
2018-12-05T11:55:38.970Z,10.87
2018-12-05T11:58:07.570Z,11.40
2018-12-05T12:00:36.160Z,11.23
2018-12-05T12:03:04.736Z,17.23
2018-12-05T12:05:33.311Z,13.67
2018-12-05T12:08:01.926Z,13.73
2018-12-05T12:10:35.693Z,13.77
2018-12-05T12:13:07.549Z,15.37
2018-12-05T12:15:36.087Z,12.23
2018-12-05T12:18:04.691Z,12.73
2018-12-05T12:20:33.617Z,13.40
2018-12-05T12:23:02.145Z,13.80
2018-12-05T12:25:31.198Z,13.77
2018-12-05T12:27:59.756Z,14.30
2018-12-05T12:30:28.358Z,12.90
2018-12-05T12:32:56.868Z,14.90
2018-12-05T12:35:25.386Z,12.10
2018-12-05T12:37:54.197Z,12.77
2018-12-05T12:40:22.920Z,13.47
2018-12-05T12:42:51.409Z,15.00
2018-12-05T12:45:20.174Z,12.57
2018-12-05T12:47:48.785Z,12.37
2018-12-05T12:50:17.406Z,12.80
2018-12-05T12:52:45.912Z,13.57
2018-12-05T12:55:14.435Z,12.80
2018-12-05T12:57:42.943Z,12.57
2018-12-05T13:00:11.704Z,12.63
2018-12-05T13:02:40.245Z,13.63
2018-12-05T13:05:08.783Z,11.23
2018-12-05T13:07:37.378Z,10.30
2018-12-05T13:10:06.834Z,9.10
2018-12-05T13:12:35.423Z,8.67
2018-12-05T13:15:04.152Z,8.77
2018-12-05T13:17:32.694Z,9.03
2018-12-05T13:20:01.430Z,9.00
2018-12-05T13:22:29.919Z,7.10
2018-12-05T13:24:58.812Z,6.77
2018-12-05T13:27:27.432Z,7.93
2018-12-05T13:29:55.952Z,5.90
2018-12-05T13:32:24.512Z,7.30
2018-12-05T13:34:53.363Z,7.43
2018-12-05T13:37:21.893Z,7.40
2018-12-05T13:39:50.764Z,7.00
2018-12-05T13:42:19.266Z,7.30
2018-12-05T13:44:47.777Z,7.23
2018-12-05T13:47:16.286Z,8.97
2018-12-05T13:49:45.105Z,9.73
2018-12-05T13:52:13.629Z,9.57
2018-12-05T13:54:42.377Z,8.83
2018-12-05T13:57:10.904Z,10.67
2018-12-05T13:59:39.426Z,11.40
2018-12-05T14:02:07.944Z,13.37
2018-12-05T14:04:36.470Z,11.67
2018-12-05T14:07:04.997Z,12.60
2018-12-05T14:09:33.555Z,13.80
2018-12-05T14:12:02.122Z,13.37
2018-12-05T14:14:30.718Z,12.77
2018-12-05T14:16:59.258Z,11.60
2018-12-05T14:19:27.835Z,12.53
2018-12-05T14:21:56.418Z,12.17
2018-12-05T14:24:24.964Z,11.57
2018-12-05T14:26:53.633Z,11.83
2018-12-05T14:29:22.604Z,13.53
2018-12-05T14:31:51.210Z,12.17
2018-12-05T14:34:19.826Z,13.13
2018-12-05T14:36:48.413Z,14.10
2018-12-05T14:39:17.107Z,13.07
2018-12-05T14:41:45.670Z,13.53
2018-12-05T14:44:14.437Z,12.80
2018-12-05T14:46:42.998Z,12.87
2018-12-05T14:49:11.817Z,14.03
2018-12-05T14:51:40.541Z,16.50
2018-12-05T14:54:09.091Z,15.57
2018-12-05T14:56:37.626Z,16.00
2018-12-05T14:59:06.169Z,16.40
2018-12-05T15:01:34.716Z,16.17
2018-12-05T15:04:03.308Z,16.57
2018-12-05T15:06:32.306Z,15.70
2018-12-05T15:09:01.127Z,17.83
2018-12-05T15:11:29.643Z,17.30
2018-12-05T15:13:58.242Z,17.30
2018-12-05T15:16:26.825Z,18.20
2018-12-05T15:18:55.380Z,19.47
2018-12-05T15:21:23.950Z,21.00
2018-12-05T15:23:52.513Z,22.50
2018-12-05T15:26:21.205Z,23.63
2018-12-05T15:28:50.076Z,22.97
2018-12-05T15:31:18.680Z,24.50
2018-12-05T15:33:47.323Z,22.93
2018-12-05T15:36:15.990Z,27.63
2018-12-05T15:38:44.597Z,30.97
2018-12-05T15:41:13.147Z,34.30
2018-12-05T15:43:42.037Z,37.00
2018-12-05T15:46:10.591Z,37.87
2018-12-05T15:48:39.317Z,40.57
2018-12-05T15:51:07.940Z,42.93
2018-12-05T15:53:37.007Z,43.77
2018-12-05T15:56:05.612Z,41.50
2018-12-05T15:58:34.537Z,43.97
2018-12-05T16:01:03.057Z,44.63
2018-12-05T16:03:31.594Z,44.83
2018-12-05T16:06:00.164Z,43.00
2018-12-05T16:08:28.747Z,45.30
2018-12-05T16:10:57.378Z,44.73
2018-12-05T16:13:25.984Z,54.13
2018-12-05T16:15:54.614Z,70.07
2018-12-05T16:18:23.189Z,88.17
2018-12-05T16:20:51.836Z,147.97
2018-12-05T16:23:20.694Z,171.60
2018-12-05T16:25:49.312Z,195.50
2018-12-05T16:28:18.005Z,227.70
2018-12-05T16:30:46.538Z,193.77
2018-12-05T16:33:15.260Z,192.33
2018-12-05T16:35:44.227Z,164.50
2018-12-05T16:38:13.075Z,159.00
2018-12-05T16:40:41.718Z,163.60
2018-12-05T16:43:10.529Z,161.23
2018-12-05T16:45:39.069Z,159.63
2018-12-05T16:48:07.911Z,160.77
2018-12-05T16:50:36.475Z,153.73
2018-12-05T16:53:05.401Z,156.30
2018-12-05T16:55:33.932Z,151.33
2018-12-05T16:58:02.470Z,152.50
2018-12-05T17:00:31.033Z,154.20
2018-12-05T17:02:59.569Z,151.53
2018-12-05T17:05:28.126Z,150.77
2018-12-05T17:07:56.671Z,156.97
2018-12-05T17:10:25.212Z,160.33
2018-12-05T17:12:53.904Z,157.47
2018-12-05T17:15:22.412Z,156.63
2018-12-05T17:17:50.950Z,150.33
2018-12-05T17:20:19.496Z,150.30
2018-12-05T17:22:48.221Z,147.47
2018-12-05T17:25:16.778Z,148.03
2018-12-05T17:27:45.331Z,145.20
2018-12-05T17:30:13.951Z,150.37
2018-12-05T17:32:42.509Z,151.83
2018-12-05T17:35:11.042Z,151.63
2018-12-05T17:37:39.577Z,151.67
2018-12-05T17:40:08.327Z,151.30
2018-12-05T17:42:36.933Z,160.57
2018-12-05T17:45:05.520Z,164.70
2018-12-05T17:47:34.475Z,172.17
2018-12-05T17:50:03.082Z,182.43
2018-12-05T17:52:31.671Z,188.80
2018-12-05T17:55:00.197Z,205.30
2018-12-05T17:57:28.987Z,213.33
2018-12-05T17:59:57.533Z,213.73
2018-12-05T18:02:26.328Z,210.53
2018-12-05T18:04:55.768Z,212.63
2018-12-05T18:07:25.148Z,211.83
2018-12-05T18:09:54.069Z,212.47
2018-12-05T18:12:22.733Z,216.43
2018-12-05T18:14:51.801Z,227.17
2018-12-05T18:17:21.054Z,234.83
2018-12-05T18:19:50.039Z,268.43
2018-12-05T18:22:18.950Z,286.53
2018-12-05T18:24:47.626Z,295.30
2018-12-05T18:27:16.554Z,310.43
2018-12-05T18:29:45.204Z,318.87
2018-12-05T18:32:14.015Z,321.47
2018-12-05T18:34:42.582Z,328.30
2018-12-05T18:37:11.160Z,331.27
2018-12-05T18:39:40.427Z,330.37
2018-12-05T18:42:09.217Z,320.40
2018-12-05T18:44:37.754Z,313.10
2018-12-05T18:47:06.329Z,306.07
2018-12-05T18:49:34.891Z,287.37
2018-12-05T18:52:03.621Z,278.63
2018-12-05T18:54:32.200Z,266.17
2018-12-05T18:57:01.046Z,261.87
2018-12-05T18:59:29.575Z,259.37
2018-12-05T19:01:58.389Z,255.60
2018-12-05T19:04:26.933Z,268.83
2018-12-05T19:06:55.504Z,268.10
2018-12-05T19:09:27.061Z,273.70
2018-12-05T19:11:54.659Z,251.10
2018-12-05T19:14:28.473Z,248.10
2018-12-05T19:16:57.399Z,247.87
2018-12-05T19:19:25.950Z,243.67
2018-12-05T19:21:54.764Z,238.37
2018-12-05T19:24:23.289Z,235.90
2018-12-05T19:26:52.359Z,219.57
2018-12-05T19:29:21.059Z,223.60
2018-12-05T19:31:49.712Z,209.10
2018-12-05T19:34:18.281Z,211.93
2018-12-05T19:36:47.118Z,224.90
2018-12-05T19:39:15.643Z,234.13
2018-12-05T19:41:44.490Z,235.73
2018-12-05T19:44:13.167Z,241.07
2018-12-05T19:46:41.745Z,253.53
2018-12-05T19:49:10.284Z,278.83
2018-12-05T19:51:38.841Z,287.87
2018-12-05T19:54:07.472Z,303.30
2018-12-05T19:56:36.337Z,303.93
2018-12-05T19:59:04.935Z,308.63
2018-12-05T20:01:33.761Z,303.40
2018-12-05T20:04:02.374Z,320.97
2018-12-05T20:06:30.988Z,335.63
2018-12-05T20:08:59.824Z,358.83
2018-12-05T20:11:28.609Z,367.10
2018-12-05T20:13:57.172Z,349.33
2018-12-05T20:16:25.956Z,334.40
2018-12-05T20:18:54.611Z,330.47
2018-12-05T20:21:23.258Z,330.03
2018-12-05T20:23:51.818Z,331.03
2018-12-05T20:26:20.509Z,338.37
2018-12-05T20:28:49.028Z,315.33
2018-12-05T20:31:17.772Z,313.67
2018-12-05T20:33:46.308Z,320.57
2018-12-05T20:36:14.893Z,306.90
2018-12-05T20:38:43.714Z,300.80
2018-12-05T20:41:12.396Z,301.57
2018-12-05T20:43:41.129Z,302.77
2018-12-05T20:46:09.952Z,295.37
2018-12-05T20:48:38.665Z,296.53
2018-12-05T20:51:08.512Z,298.73
2018-12-05T20:53:37.351Z,297.30
2018-12-05T20:56:06.711Z,300.77
2018-12-05T20:58:35.705Z,290.40
2018-12-05T21:01:04.600Z,280.63
2018-12-05T21:03:33.281Z,264.97
2018-12-05T21:06:02.197Z,269.17
2018-12-05T21:08:30.924Z,274.20
2018-12-05T21:10:59.669Z,263.33
2018-12-05T21:13:28.405Z,255.70
2018-12-05T21:15:57.155Z,242.47
2018-12-05T21:18:26.342Z,220.67
2018-12-05T21:20:55.987Z,217.73
2018-12-05T21:23:24.599Z,209.37
2018-12-05T21:25:53.602Z,174.63
2018-12-05T21:28:22.378Z,157.77
2018-12-05T21:30:52.490Z,160.17
2018-12-05T21:33:21.176Z,160.63
2018-12-05T21:35:51.347Z,153.93
2018-12-05T21:38:20.308Z,146.47
2018-12-05T21:40:50.122Z,145.30
2018-12-05T21:43:18.711Z,131.63
2018-12-05T21:45:48.128Z,128.53
2018-12-05T21:48:16.806Z,122.00
2018-12-05T21:50:45.702Z,119.63
2018-12-05T21:53:14.266Z,113.57
2018-12-05T21:55:44.260Z,110.37
2018-12-05T21:58:12.813Z,112.23
2018-12-05T22:00:41.402Z,119.80
2018-12-05T22:03:09.964Z,126.00
2018-12-05T22:05:38.584Z,125.57
2018-12-05T22:08:07.165Z,123.90
2018-12-05T22:10:35.977Z,120.47
2018-12-05T22:13:04.482Z,122.13
2018-12-05T22:15:33.062Z,127.40
2018-12-05T22:18:01.602Z,127.10
2018-12-05T22:20:30.294Z,132.77
2018-12-05T22:22:58.826Z,128.30
2018-12-05T22:25:27.402Z,138.00
2018-12-05T22:27:55.917Z,134.20
2018-12-05T22:30:24.619Z,129.50
2018-12-05T22:32:53.150Z,135.17
2018-12-05T22:35:21.853Z,132.70
2018-12-05T22:37:50.378Z,132.07
2018-12-05T22:40:19.015Z,135.20
2018-12-05T22:42:47.594Z,144.70
2018-12-05T22:45:16.213Z,148.40
2018-12-05T22:47:44.896Z,146.43
2018-12-05T22:50:13.613Z,145.23
2018-12-05T22:52:42.166Z,146.47
2018-12-05T22:55:10.821Z,141.60
2018-12-05T22:57:39.358Z,141.83
2018-12-05T23:00:11.446Z,142.33
2018-12-05T23:02:39.970Z,138.67
2018-12-05T23:05:08.542Z,139.53
2018-12-05T23:07:37.160Z,140.57
2018-12-05T23:10:05.833Z,136.77
2018-12-05T23:12:34.358Z,135.87
2018-12-05T23:15:03.173Z,135.33
2018-12-05T23:17:31.686Z,136.87
2018-12-05T23:20:00.262Z,133.77
2018-12-05T23:22:28.771Z,142.73
2018-12-05T23:24:57.474Z,146.73
2018-12-05T23:27:25.984Z,144.23
2018-12-05T23:29:54.519Z,143.97
2018-12-05T23:32:23.045Z,144.13
2018-12-05T23:34:51.622Z,145.07
2018-12-05T23:37:21.143Z,141.77
2018-12-05T23:39:49.670Z,142.83
2018-12-05T23:42:18.198Z,139.93
2018-12-05T23:44:46.725Z,140.13
2018-12-05T23:47:15.516Z,141.03
2018-12-05T23:49:44.069Z,137.80
2018-12-05T23:52:12.642Z,138.77
2018-12-05T23:54:41.164Z,132.93
2018-12-05T23:57:09.715Z,132.87
2018-12-05T23:59:38.251Z,128.77
